createdAt,value
2018-03-19T00:00:17.944Z,28.42
2018-03-19T00:02:44.185Z,30.75
2018-03-19T00:05:10.446Z,37.00
2018-03-19T00:07:36.646Z,36.15
2018-03-19T00:10:02.892Z,34.75
2018-03-19T00:12:29.107Z,31.55
2018-03-19T00:14:55.328Z,29.25
2018-03-19T00:17:21.544Z,36.08
2018-03-19T00:19:47.761Z,32.45
2018-03-19T00:22:13.995Z,35.20
2018-03-19T00:24:40.232Z,34.72
2018-03-19T00:27:06.441Z,32.22
2018-03-19T00:29:32.680Z,31.73
2018-03-19T00:31:58.864Z,29.15
2018-03-19T00:34:25.127Z,30.27
2018-03-19T00:36:51.307Z,32.78
2018-03-19T00:39:17.506Z,33.10
2018-03-19T00:41:43.719Z,30.77
2018-03-19T00:44:09.912Z,35.00
2018-03-19T00:46:36.126Z,26.50
2018-03-19T00:49:02.328Z,31.27
2018-03-19T00:51:28.535Z,31.52
2018-03-19T00:53:54.777Z,34.30
2018-03-19T00:56:21.009Z,30.65
2018-03-19T00:58:47.257Z,30.10
2018-03-19T01:01:13.468Z,29.05
2018-03-19T01:03:39.692Z,37.30
2018-03-19T01:06:05.878Z,31.58
2018-03-19T01:08:32.147Z,41.97
2018-03-19T01:10:58.376Z,47.20
2018-03-19T01:13:24.567Z,37.15
2018-03-19T01:15:50.751Z,38.60
2018-03-19T01:18:17.750Z,44.65
2018-03-19T01:20:43.976Z,40.12
2018-03-19T01:23:10.205Z,46.83
2018-03-19T01:25:36.410Z,35.83
2018-03-19T01:28:03.352Z,35.42
2018-03-19T01:30:30.305Z,41.22
2018-03-19T01:32:57.239Z,40.25
2018-03-19T01:35:24.164Z,40.45
2018-03-19T01:37:50.413Z,36.30
2018-03-19T01:40:17.340Z,43.35
2018-03-19T01:42:44.357Z,39.85
2018-03-19T01:45:10.607Z,36.60
2018-03-19T01:47:36.831Z,38.17
2018-03-19T01:50:03.078Z,39.65
2018-03-19T01:52:42.108Z,45.38
2018-03-19T01:55:09.055Z,40.00
2018-03-19T01:57:36.052Z,42.47
2018-03-19T02:00:02.315Z,38.38
2018-03-19T02:02:28.567Z,43.78
2018-03-19T02:04:55.481Z,42.55
2018-03-19T02:07:21.707Z,41.28
2018-03-19T02:09:47.951Z,41.92
2018-03-19T02:12:14.179Z,37.97
2018-03-19T02:14:41.184Z,43.53
2018-03-19T02:17:07.392Z,46.85
2018-03-19T02:19:33.569Z,45.50
2018-03-19T02:21:59.784Z,38.20
2018-03-19T02:24:26.008Z,44.53
2018-03-19T02:26:52.234Z,49.17
2018-03-19T02:29:18.405Z,43.10
2018-03-19T02:31:45.370Z,42.83
2018-03-19T02:34:11.663Z,44.42
2018-03-19T02:36:38.670Z,48.15
2018-03-19T02:39:04.853Z,47.45
2018-03-19T02:41:31.816Z,45.88
2018-03-19T02:43:58.114Z,58.78
2018-03-19T02:46:24.373Z,51.22
2018-03-19T02:48:50.601Z,43.47
2018-03-19T02:51:16.862Z,44.38
2018-03-19T02:53:43.061Z,47.67
2018-03-19T02:56:09.260Z,43.28
2018-03-19T02:58:35.458Z,44.33
2018-03-19T03:01:01.636Z,44.42
2018-03-19T03:03:27.880Z,49.85
2018-03-19T03:05:54.116Z,45.80
2018-03-19T03:08:20.409Z,45.47
2018-03-19T03:10:46.614Z,48.87
2018-03-19T03:13:12.841Z,46.45
2018-03-19T03:15:39.793Z,48.05
2018-03-19T03:18:05.976Z,48.45
2018-03-19T03:20:32.213Z,41.70
2018-03-19T03:22:58.449Z,49.47
2018-03-19T03:25:24.714Z,47.90
2018-03-19T03:27:50.931Z,55.97
2018-03-19T03:30:17.932Z,51.28
2018-03-19T03:32:44.165Z,41.22
2018-03-19T03:35:10.332Z,54.88
2018-03-19T03:37:37.302Z,43.90
2018-03-19T03:40:03.573Z,40.65
2018-03-19T03:42:29.745Z,46.35
2018-03-19T03:44:56.024Z,46.90
2018-03-19T03:47:22.250Z,44.00
2018-03-19T03:49:48.465Z,46.20
2018-03-19T03:52:14.723Z,48.40
2018-03-19T03:54:40.997Z,54.55
2018-03-19T03:57:07.194Z,42.03
2018-03-19T03:59:34.144Z,45.22
2018-03-19T04:02:01.123Z,43.05
2018-03-19T04:04:27.306Z,52.40
2018-03-19T04:06:53.554Z,47.95
2018-03-19T04:09:20.549Z,45.53
2018-03-19T04:11:46.776Z,55.42
2018-03-19T04:14:13.026Z,40.65
2018-03-19T04:16:39.264Z,54.15
2018-03-19T04:19:05.482Z,43.72
2018-03-19T04:21:32.499Z,45.10
2018-03-19T04:23:58.749Z,42.50
2018-03-19T04:26:24.966Z,45.55
2018-03-19T04:28:51.217Z,44.92
2018-03-19T04:31:17.424Z,52.58
2018-03-19T04:33:43.598Z,44.88
2018-03-19T04:36:10.581Z,44.35
2018-03-19T04:38:36.791Z,46.85
2018-03-19T04:41:03.005Z,40.25
2018-03-19T04:43:29.260Z,52.28
2018-03-19T04:45:55.479Z,41.28
2018-03-19T04:48:21.785Z,52.25
2018-03-19T04:50:48.756Z,42.65
2018-03-19T04:53:14.997Z,52.97
2018-03-19T04:55:41.205Z,48.45
2018-03-19T04:58:07.408Z,53.30
2018-03-19T05:00:34.353Z,46.15
2018-03-19T05:03:01.303Z,53.30
2018-03-19T05:05:27.481Z,41.97
2018-03-19T05:07:53.700Z,39.33
2018-03-19T05:10:19.989Z,44.30
2018-03-19T05:12:46.927Z,44.72
2018-03-19T05:15:13.898Z,45.08
2018-03-19T05:17:40.170Z,47.55
2018-03-19T05:20:06.333Z,49.50
2018-03-19T05:22:32.584Z,46.40
2018-03-19T05:24:58.793Z,50.55
2018-03-19T05:27:25.045Z,51.58
2018-03-19T05:29:51.261Z,44.08
2018-03-19T05:32:17.525Z,46.65
2018-03-19T05:34:43.769Z,44.72
2018-03-19T05:37:10.005Z,42.50
2018-03-19T05:39:36.215Z,58.38
2018-03-19T05:42:02.480Z,46.85
2018-03-19T05:44:29.405Z,46.33
2018-03-19T05:46:55.585Z,46.22
2018-03-19T05:49:21.840Z,52.95
2018-03-19T05:51:48.053Z,47.90
2018-03-19T05:54:14.283Z,39.90
2018-03-19T05:56:40.516Z,45.20
2018-03-19T05:59:06.776Z,50.65
2018-03-19T06:01:33.004Z,49.03
2018-03-19T06:03:59.214Z,46.92
2018-03-19T06:06:25.456Z,49.35
2018-03-19T06:08:51.644Z,52.83
2018-03-19T06:11:17.872Z,48.33
2018-03-19T06:13:44.146Z,41.53
2018-03-19T06:16:11.104Z,49.15
2018-03-19T06:18:38.118Z,44.75
2018-03-19T06:21:04.314Z,52.00
2018-03-19T06:23:30.527Z,46.30
2018-03-19T06:25:56.741Z,49.92
2018-03-19T06:28:23.027Z,59.55
2018-03-19T06:30:49.265Z,51.60
2018-03-19T06:33:15.448Z,45.28
2018-03-19T06:35:41.727Z,47.80
2018-03-19T06:38:07.944Z,50.88
2018-03-19T06:40:34.185Z,55.35
2018-03-19T06:43:01.193Z,44.53
2018-03-19T06:45:27.376Z,52.05
2018-03-19T06:47:54.328Z,44.10
2018-03-19T06:50:20.545Z,49.00
2018-03-19T06:52:47.542Z,47.67
2018-03-19T06:55:13.813Z,57.72
2018-03-19T06:57:40.761Z,51.08
2018-03-19T07:00:07.732Z,53.83
2018-03-19T07:02:33.944Z,45.47
2018-03-19T07:05:00.908Z,43.72
2018-03-19T07:07:27.157Z,49.88
2018-03-19T07:09:53.399Z,46.20
2018-03-19T07:12:19.585Z,50.05
2018-03-19T07:14:45.840Z,52.17
2018-03-19T07:17:12.081Z,52.83
2018-03-19T07:19:38.300Z,61.63
2018-03-19T07:22:04.516Z,48.70
2018-03-19T07:24:30.717Z,49.30
2018-03-19T07:26:56.951Z,55.55
2018-03-19T07:29:23.213Z,50.85
2018-03-19T07:31:49.429Z,52.90
2018-03-19T07:34:15.741Z,50.58
2018-03-19T07:36:41.945Z,47.95
2018-03-19T07:39:08.167Z,50.83
2018-03-19T07:41:34.404Z,56.20
2018-03-19T07:44:01.423Z,48.42
2018-03-19T07:46:27.622Z,56.45
2018-03-19T07:48:53.841Z,53.95
2018-03-19T07:51:20.051Z,50.45
2018-03-19T07:53:46.275Z,53.65
2018-03-19T07:56:12.493Z,50.33
2018-03-19T07:58:38.714Z,60.72
2018-03-19T08:01:04.955Z,51.95
2018-03-19T08:03:31.208Z,49.00
2018-03-19T08:05:57.446Z,42.55
2018-03-19T08:08:23.612Z,51.28
2018-03-19T08:10:50.563Z,47.35
2018-03-19T08:13:17.509Z,49.83
2018-03-19T08:15:44.443Z,46.70
2018-03-19T08:18:10.652Z,44.95
2018-03-19T08:20:36.865Z,54.88
2018-03-19T08:23:03.040Z,46.17
2018-03-19T08:25:29.970Z,49.42
2018-03-19T08:27:56.944Z,52.67
2018-03-19T08:30:23.610Z,49.80
2018-03-19T08:32:49.905Z,53.25
2018-03-19T08:35:16.131Z,52.72
2018-03-19T08:37:42.365Z,45.53
2018-03-19T08:40:09.676Z,41.20
2018-03-19T08:42:35.848Z,46.53
2018-03-19T08:45:02.084Z,53.65
2018-03-19T08:47:28.347Z,45.40
2018-03-19T08:49:54.551Z,48.17
2018-03-19T08:52:20.765Z,55.97
2018-03-19T08:54:46.994Z,44.63
2018-03-19T08:57:13.217Z,52.40
2018-03-19T08:59:39.408Z,52.22
2018-03-19T09:02:05.606Z,56.65
2018-03-19T09:04:31.802Z,52.85
2018-03-19T09:06:58.049Z,52.55
2018-03-19T09:09:24.289Z,42.15
2018-03-19T09:11:50.468Z,53.15
2018-03-19T09:14:17.430Z,48.47
2018-03-19T09:16:43.674Z,52.65
2018-03-19T09:19:09.853Z,48.92
2018-03-19T09:21:36.805Z,52.65
2018-03-19T09:24:03.778Z,45.08
2018-03-19T09:26:30.023Z,51.28
2018-03-19T09:28:56.287Z,54.22
2018-03-19T09:31:23.373Z,45.12
2018-03-19T09:33:49.563Z,44.42
2018-03-19T09:36:15.745Z,59.13
2018-03-19T09:38:41.997Z,52.50
2018-03-19T09:41:08.189Z,85.82
2018-03-19T09:43:34.439Z,62.45
2018-03-19T09:46:00.634Z,54.45
2018-03-19T09:48:26.818Z,55.12
2018-03-19T09:50:53.023Z,49.35
2018-03-19T09:53:19.240Z,49.20
2018-03-19T09:55:45.473Z,48.33
2018-03-19T09:58:11.647Z,52.05
2018-03-19T10:00:38.588Z,55.88
2018-03-19T10:03:04.802Z,69.82
2018-03-19T10:05:31.113Z,46.50
2018-03-19T10:07:57.365Z,50.85
2018-03-19T10:10:23.587Z,45.65
2018-03-19T10:12:49.808Z,45.25
2018-03-19T10:15:16.784Z,45.78
2018-03-19T10:17:43.769Z,55.22
2018-03-19T10:20:09.971Z,50.30
2018-03-19T10:22:36.181Z,42.22
2018-03-19T10:25:03.120Z,43.42
2018-03-19T10:27:30.058Z,40.30
2018-03-19T10:29:56.276Z,43.47
2018-03-19T10:32:22.516Z,50.75
2018-03-19T10:34:48.822Z,46.37
2018-03-19T10:37:15.080Z,46.85
2018-03-19T10:39:42.069Z,54.78
2018-03-19T10:42:08.293Z,44.00
2018-03-19T10:44:34.609Z,44.85
2018-03-19T10:47:00.995Z,48.60
2018-03-19T10:49:27.230Z,44.80
2018-03-19T10:51:54.152Z,52.47
2018-03-19T10:54:20.443Z,39.28
2018-03-19T10:56:46.709Z,43.80
2018-03-19T10:59:12.959Z,43.97
2018-03-19T11:01:42.163Z,51.35
2018-03-19T11:04:14.062Z,44.08
2018-03-19T11:06:59.038Z,48.90
2018-03-19T11:09:27.037Z,48.78
2018-03-19T11:11:53.317Z,46.70
2018-03-19T11:14:19.479Z,43.55
2018-03-19T11:16:45.694Z,50.03
2018-03-19T11:19:11.920Z,43.22
2018-03-19T11:21:38.155Z,44.45
2018-03-19T11:24:04.300Z,48.83
2018-03-19T11:26:30.551Z,49.08
2018-03-19T11:28:56.798Z,52.38
2018-03-19T11:31:23.116Z,50.35
2018-03-19T11:33:49.302Z,45.58
2018-03-19T11:36:15.576Z,46.25
2018-03-19T11:38:42.490Z,44.47
2018-03-19T11:41:08.778Z,48.08
2018-03-19T11:43:34.984Z,49.35
2018-03-19T11:46:01.906Z,46.30
2018-03-19T11:48:28.112Z,44.20
2018-03-19T11:50:54.348Z,48.22
2018-03-19T11:53:20.543Z,47.28
2018-03-19T11:55:46.735Z,44.63
2018-03-19T11:58:13.680Z,46.95
2018-03-19T12:00:39.911Z,47.78
2018-03-19T12:03:06.129Z,46.92
2018-03-19T12:05:33.104Z,40.33
2018-03-19T12:07:59.304Z,49.60
2018-03-19T12:10:26.304Z,44.42
2018-03-19T12:12:52.484Z,41.10
2018-03-19T12:15:18.715Z,49.15
2018-03-19T12:17:44.932Z,49.33
2018-03-19T12:20:11.908Z,50.72
2018-03-19T12:22:38.136Z,50.17
2018-03-19T12:25:04.448Z,43.67
2018-03-19T12:27:30.677Z,41.90
2018-03-19T12:29:56.875Z,47.20
2018-03-19T12:32:23.832Z,47.67
2018-03-19T12:34:50.791Z,46.50
2018-03-19T12:37:16.963Z,45.70
2018-03-19T12:39:43.177Z,50.63
2018-03-19T12:42:09.404Z,48.78
2018-03-19T12:44:35.620Z,44.88
2018-03-19T12:47:01.878Z,39.53
2018-03-19T12:49:28.065Z,51.75
2018-03-19T12:51:54.310Z,47.47
2018-03-19T12:54:21.606Z,52.58
2018-03-19T12:56:47.795Z,46.35
2018-03-19T12:59:14.008Z,42.55
2018-03-19T13:01:40.267Z,50.75
2018-03-19T13:04:06.457Z,39.13
2018-03-19T13:06:32.775Z,41.60
2018-03-19T13:08:59.119Z,43.55
2018-03-19T13:11:26.012Z,36.03
2018-03-19T13:13:52.188Z,41.50
2018-03-19T13:16:18.432Z,40.00
2018-03-19T13:18:44.639Z,40.50
2018-03-19T13:21:10.857Z,40.50
2018-03-19T13:23:37.201Z,38.63
2018-03-19T13:26:03.434Z,37.75
2018-03-19T13:28:29.672Z,46.55
2018-03-19T13:30:55.862Z,42.95
2018-03-19T13:33:22.858Z,38.33
2018-03-19T13:35:49.026Z,42.30
2018-03-19T13:38:16.008Z,36.17
2018-03-19T13:40:42.241Z,39.40
2018-03-19T13:43:08.482Z,48.75
2018-03-19T13:45:34.700Z,41.30
2018-03-19T13:48:01.140Z,40.17
2018-03-19T13:50:28.130Z,38.75
2018-03-19T13:52:54.395Z,44.28
2018-03-19T13:55:20.604Z,41.55
2018-03-19T13:57:46.852Z,43.67
2018-03-19T14:00:13.061Z,42.80
2018-03-19T14:02:39.304Z,41.05
2018-03-19T14:05:05.582Z,37.72
2018-03-19T14:07:31.849Z,38.20
2018-03-19T14:09:58.136Z,39.55
2018-03-19T14:12:25.138Z,44.60
2018-03-19T14:14:51.385Z,38.25
2018-03-19T14:17:17.622Z,38.83
2018-03-19T14:19:43.909Z,45.72
2018-03-19T14:22:10.125Z,41.70
2018-03-19T14:24:37.153Z,41.05
2018-03-19T14:27:03.422Z,42.47
2018-03-19T14:29:29.684Z,45.83
2018-03-19T14:31:55.962Z,40.50
2018-03-19T14:34:22.811Z,44.30
2018-03-19T14:36:49.728Z,52.58
2018-03-19T14:39:16.005Z,43.65
2018-03-19T14:41:42.262Z,37.17
2018-03-19T14:44:08.437Z,42.83
2018-03-19T14:46:34.650Z,41.35
2018-03-19T14:49:01.600Z,40.70
2018-03-19T14:51:28.577Z,42.83
2018-03-19T14:53:54.819Z,41.63
2018-03-19T14:56:21.045Z,34.50
2018-03-19T14:58:47.255Z,35.60
2018-03-19T15:01:13.433Z,41.80
2018-03-19T15:03:39.657Z,36.55
2018-03-19T15:06:05.897Z,43.70
2018-03-19T15:08:32.114Z,43.45
2018-03-19T15:10:58.363Z,41.88
2018-03-19T15:13:25.342Z,36.50
2018-03-19T15:15:51.542Z,40.12
2018-03-19T15:18:17.793Z,38.35
2018-03-19T15:20:44.021Z,33.60
2018-03-19T15:23:10.191Z,33.42
2018-03-19T15:25:36.391Z,34.83
2018-03-19T15:28:02.645Z,35.55
2018-03-19T15:30:29.238Z,28.73
2018-03-19T15:32:55.536Z,43.70
2018-03-19T15:35:22.485Z,37.22
2018-03-19T15:37:48.826Z,38.22
2018-03-19T15:40:15.077Z,35.10
2018-03-19T15:42:41.347Z,46.17
2018-03-19T15:45:07.658Z,38.10
2018-03-19T15:47:33.970Z,37.05
2018-03-19T15:50:01.146Z,35.30
2018-03-19T15:52:27.440Z,33.38
2018-03-19T15:54:53.742Z,31.98
2018-03-19T15:57:20.706Z,36.20
2018-03-19T15:59:46.941Z,39.80
2018-03-19T16:02:13.115Z,36.22
2018-03-19T16:04:39.378Z,36.33
2018-03-19T16:07:06.304Z,40.60
2018-03-19T16:09:32.491Z,38.13
2018-03-19T16:11:58.668Z,35.67
2018-03-19T16:14:25.654Z,35.53
2018-03-19T16:16:51.861Z,37.75
2018-03-19T16:19:18.101Z,34.15
2018-03-19T16:21:44.311Z,41.20
2018-03-19T16:24:10.517Z,37.50
2018-03-19T16:26:36.748Z,39.92
2018-03-19T16:29:03.050Z,35.20
2018-03-19T16:31:29.305Z,37.10
2018-03-19T16:33:56.362Z,32.03
2018-03-19T16:36:23.368Z,43.38
2018-03-19T16:38:49.570Z,41.65
2018-03-19T16:41:15.758Z,44.67
2018-03-19T16:43:42.714Z,34.58
2018-03-19T16:46:08.959Z,33.25
2018-03-19T16:48:35.136Z,38.75
2018-03-19T16:51:01.446Z,42.65
2018-03-19T16:53:27.675Z,37.72
2018-03-19T16:55:53.891Z,36.50
2018-03-19T16:58:20.137Z,41.03
2018-03-19T17:00:46.389Z,39.00
2018-03-19T17:03:13.221Z,36.15
2018-03-19T17:05:39.458Z,39.55
2018-03-19T17:08:05.722Z,43.83
2018-03-19T17:10:31.893Z,41.40
2018-03-19T17:12:58.210Z,39.28
2018-03-19T17:15:24.425Z,40.25
2018-03-19T17:17:50.625Z,42.40
2018-03-19T17:20:16.832Z,43.13
2018-03-19T17:22:43.797Z,36.20
2018-03-19T17:25:10.056Z,45.40
2018-03-19T17:27:36.244Z,39.05
2018-03-19T17:30:03.200Z,39.25
2018-03-19T17:32:29.470Z,44.75
2018-03-19T17:34:55.677Z,39.33
2018-03-19T17:37:21.883Z,36.17
2018-03-19T17:39:48.846Z,49.50
2018-03-19T17:42:15.070Z,49.20
2018-03-19T17:44:41.379Z,48.10
2018-03-19T17:47:07.682Z,46.60
2018-03-19T17:49:33.884Z,35.92
2018-03-19T17:52:00.077Z,42.90
2018-03-19T17:54:26.295Z,44.83
2018-03-19T17:56:52.520Z,47.20
2018-03-19T17:59:18.712Z,38.47
2018-03-19T18:01:44.907Z,36.85
2018-03-19T18:04:11.129Z,45.10
2018-03-19T18:06:37.348Z,38.85
2018-03-19T18:09:03.712Z,45.25
2018-03-19T18:11:29.961Z,49.85
2018-03-19T18:13:56.158Z,49.45
2018-03-19T18:16:22.380Z,38.25
2018-03-19T18:18:48.656Z,47.13
2018-03-19T18:21:14.845Z,49.13
2018-03-19T18:23:41.100Z,47.78
2018-03-19T18:26:07.350Z,43.67
2018-03-19T18:28:34.270Z,42.38
2018-03-19T18:31:00.525Z,48.67
2018-03-19T18:33:27.454Z,49.70
2018-03-19T18:35:54.465Z,46.78
2018-03-19T18:38:20.710Z,40.80
2018-03-19T18:40:46.967Z,43.00
2018-03-19T18:43:13.880Z,40.78
2018-03-19T18:45:40.082Z,44.78
2018-03-19T18:48:06.282Z,54.58
2018-03-19T18:50:32.502Z,57.50
2018-03-19T18:52:58.749Z,41.58
2018-03-19T18:55:25.022Z,53.78
2018-03-19T18:57:51.333Z,43.10
2018-03-19T19:00:17.546Z,39.47
2018-03-19T19:02:43.734Z,41.00
2018-03-19T19:05:10.770Z,43.80
2018-03-19T19:07:37.703Z,66.50
2018-03-19T19:10:03.937Z,45.50
2018-03-19T19:12:30.149Z,44.50
2018-03-19T19:14:56.385Z,40.12
2018-03-19T19:17:23.362Z,40.00
2018-03-19T19:19:49.581Z,43.80
2018-03-19T19:22:15.829Z,41.13
2018-03-19T19:24:42.076Z,41.72
2018-03-19T19:27:08.243Z,42.60
2018-03-19T19:29:34.521Z,41.90
2018-03-19T19:32:00.792Z,44.03
2018-03-19T19:34:26.996Z,45.20
2018-03-19T19:36:53.281Z,42.65
2018-03-19T19:39:20.225Z,42.83
2018-03-19T19:41:46.428Z,45.47
2018-03-19T19:44:12.693Z,42.90
2018-03-19T19:46:38.891Z,43.38
2018-03-19T19:49:05.084Z,43.78
2018-03-19T19:51:31.333Z,43.95
2018-03-19T19:53:57.592Z,54.03
2018-03-19T19:56:24.619Z,40.85
2018-03-19T19:58:50.900Z,45.47
2018-03-19T20:01:18.392Z,47.15
2018-03-19T20:03:44.658Z,49.78
2018-03-19T20:06:10.873Z,52.33
2018-03-19T20:08:37.852Z,47.55
2018-03-19T20:11:04.106Z,45.67
2018-03-19T20:13:30.421Z,39.08
2018-03-19T20:15:56.776Z,48.00
2018-03-19T20:18:23.794Z,48.35
2018-03-19T20:20:50.010Z,48.70
2018-03-19T20:23:16.265Z,45.72
2018-03-19T20:25:42.509Z,49.30
2018-03-19T20:28:09.615Z,49.05
2018-03-19T20:30:35.927Z,53.90
2018-03-19T20:33:02.150Z,48.72
2018-03-19T20:35:28.396Z,51.10
2018-03-19T20:37:54.641Z,54.40
2018-03-19T20:40:20.892Z,55.47
2018-03-19T20:42:47.207Z,49.58
2018-03-19T20:45:13.521Z,50.12
2018-03-19T20:47:39.736Z,52.95
2018-03-19T20:50:05.993Z,52.05
2018-03-19T20:52:32.251Z,57.28
2018-03-19T20:54:59.231Z,53.33
2018-03-19T20:57:25.498Z,55.28
2018-03-19T20:59:51.708Z,50.00
2018-03-19T21:02:17.911Z,40.60
2018-03-19T21:04:44.867Z,48.13
2018-03-19T21:07:11.087Z,43.00
2018-03-19T21:09:37.260Z,42.95
2018-03-19T21:12:03.536Z,40.50
2018-03-19T21:14:30.537Z,45.28
2018-03-19T21:16:56.745Z,40.12
2018-03-19T21:19:22.941Z,45.30
2018-03-19T21:21:49.883Z,38.83
2018-03-19T21:24:16.826Z,36.45
2018-03-19T21:26:43.777Z,30.75
2018-03-19T21:29:09.969Z,36.45
2018-03-19T21:31:36.196Z,39.38
2018-03-19T21:34:02.425Z,33.78
2018-03-19T21:36:28.704Z,32.42
2018-03-19T21:38:54.908Z,32.25
2018-03-19T21:41:21.859Z,39.20
2018-03-19T21:43:48.793Z,39.50
2018-03-19T21:46:15.721Z,40.25
2018-03-19T21:48:41.923Z,36.35
2018-03-19T21:51:08.084Z,41.42
2018-03-19T21:53:35.015Z,30.23
2018-03-19T21:56:01.269Z,29.08
2018-03-19T21:58:28.270Z,30.20
2018-03-19T22:00:54.485Z,34.03
2018-03-19T22:03:20.648Z,32.53
2018-03-19T22:05:46.841Z,37.70
2018-03-19T22:08:13.045Z,35.55
2018-03-19T22:10:39.321Z,35.10
2018-03-19T22:13:05.499Z,37.72
2018-03-19T22:15:31.673Z,28.85
2018-03-19T22:17:57.952Z,36.35
2018-03-19T22:20:24.956Z,38.38
2018-03-19T22:22:51.153Z,32.55
2018-03-19T22:25:17.373Z,34.75
2018-03-19T22:27:43.611Z,30.45
2018-03-19T22:30:09.816Z,32.90
2018-03-19T22:32:36.004Z,33.33
2018-03-19T22:35:02.966Z,29.30
2018-03-19T22:37:29.171Z,29.65
2018-03-19T22:39:55.385Z,37.17
2018-03-19T22:42:21.610Z,33.28
2018-03-19T22:44:47.787Z,34.10
2018-03-19T22:47:13.974Z,28.65
2018-03-19T22:49:40.309Z,32.50
2018-03-19T22:52:06.473Z,34.08
2018-03-19T22:54:32.736Z,28.23
2018-03-19T22:56:58.933Z,28.27
2018-03-19T22:59:25.162Z,30.70
2018-03-19T23:01:51.360Z,26.62
2018-03-19T23:04:30.381Z,26.40
2018-03-19T23:06:57.340Z,35.17
2018-03-19T23:09:23.565Z,30.95
2018-03-19T23:11:50.519Z,37.45
2018-03-19T23:14:16.711Z,33.90
2018-03-19T23:16:42.912Z,30.95
2018-03-19T23:19:09.155Z,32.75
2018-03-19T23:21:35.371Z,27.17
2018-03-19T23:24:01.569Z,37.55
2018-03-19T23:26:27.792Z,38.60
2018-03-19T23:28:54.060Z,27.20
2018-03-19T23:31:20.287Z,36.45
2018-03-19T23:33:46.436Z,24.50
2018-03-19T23:36:12.616Z,33.30
2018-03-19T23:38:38.802Z,35.25
2018-03-19T23:41:05.705Z,31.42
2018-03-19T23:43:31.933Z,35.42
2018-03-19T23:45:58.157Z,31.08
2018-03-19T23:48:24.396Z,32.80
2018-03-19T23:50:50.625Z,36.25
2018-03-19T23:53:16.789Z,30.98
2018-03-19T23:55:43.840Z,32.53
2018-03-19T23:58:10.783Z,39.03
